Startpagina
METAR-TAF:

METAR-TAF

Vliegvelden :

Koeweit, Koeweit

breedte: 29-13N, lengte: 047-59E, hoogte: 55 m

Actueel weer

Dit bericht is 1 uur en het 3 minuten geleden gemaakt, om 08:00 UTC
Wind 13 kt uit het noorden
Temperatuur 40°C
Vochtigheid 19%
Druk 1009 hPa
Zicht: 7000 m
Onbewolkt

METAR: OKBK 230800Z 36013KT 7000 SKC 40/12 Q1009 NOSIG

Tijdstip: 12:03 (09:03 UTC)

Verwachting

Dit bericht is 4 uur en het 18 minuten geleden gemaakt, om 04:45 UTC
Verwachting geldig van 23 om 06 UTC tot 24 om 12 UTC
Wind 10 kt uit het noordnoordwesten met uitschieters tot 22 kt
Zicht: 7000 m
Tijdelijke
van 23 om 06 UTC tot 23 om 17 UTC
Zicht: 3000 m
Stuifstof

TAF: OKBK 230445Z 2306/2412 34010G22KT 7000 NSC TEMPO 2306/2317 3000 BLDU

Waarnemingen en weersverwachtingen van meer dan 4000 vliegvelden (METAR en TAF).

De beschikbare stations zijn de gele en rode punten op de kaart.

Ga met uw muis naar het station om de naam te zien.

Klik dan om waarnemingen en weersverwachtingen te zien.

kaart wijzigen: klik op de groene knoppen met een zwart kruis om in te zoomen, op de groene knop met een streepje om uit te zoomen of op de groene pijlen voor aangrenzende kaarten.


METAR-TAF: